createdAt,value
2019-04-29T00:00:45.619Z,7.84
2019-04-29T00:01:45.607Z,7.84
2019-04-29T00:02:45.594Z,7.84
2019-04-29T00:03:45.589Z,7.81
2019-04-29T00:04:45.583Z,7.85
2019-04-29T00:05:45.574Z,7.88
2019-04-29T00:06:45.566Z,7.86
2019-04-29T00:07:45.553Z,7.76
2019-04-29T00:08:45.545Z,7.81
2019-04-29T00:09:45.531Z,7.82
2019-04-29T00:10:45.521Z,7.76
2019-04-29T00:11:45.514Z,7.71
2019-04-29T00:12:45.507Z,7.73
2019-04-29T00:13:45.499Z,7.74
2019-04-29T00:14:45.491Z,7.71
2019-04-29T00:15:45.488Z,7.76
2019-04-29T00:16:45.467Z,7.74
2019-04-29T00:17:45.463Z,7.70
2019-04-29T00:18:45.451Z,7.79
2019-04-29T00:19:45.441Z,7.82
2019-04-29T00:20:45.437Z,7.81
2019-04-29T00:21:45.416Z,7.81
2019-04-29T00:22:45.407Z,7.74
2019-04-29T00:23:45.398Z,7.71
2019-04-29T00:24:45.389Z,7.77
2019-04-29T00:25:45.385Z,7.69
2019-04-29T00:26:45.375Z,7.71
2019-04-29T00:27:45.366Z,7.74
2019-04-29T00:28:45.365Z,7.71
2019-04-29T00:29:45.343Z,7.73
2019-04-29T00:30:45.336Z,7.71
2019-04-29T00:31:45.329Z,7.73
2019-04-29T00:32:45.319Z,7.73
2019-04-29T00:33:45.308Z,7.73
2019-04-29T00:34:45.295Z,7.66
2019-04-29T00:35:45.285Z,7.70
2019-04-29T00:36:45.278Z,7.67
2019-04-29T00:37:45.268Z,7.60
2019-04-29T00:38:45.265Z,7.60
2019-04-29T00:39:45.251Z,7.62
2019-04-29T00:40:45.241Z,7.54
2019-04-29T00:41:45.226Z,7.48
2019-04-29T00:42:45.221Z,7.50
2019-04-29T00:43:45.210Z,7.47
2019-04-29T00:44:45.201Z,7.48
2019-04-29T00:45:45.194Z,7.42
2019-04-29T00:46:45.191Z,7.42
2019-04-29T00:47:45.173Z,7.39
2019-04-29T00:48:45.165Z,7.39
2019-04-29T00:49:45.158Z,7.27
2019-04-29T00:50:45.148Z,7.29
2019-04-29T00:51:45.136Z,7.27
2019-04-29T00:52:45.127Z,7.36
2019-04-29T00:53:45.113Z,7.24
2019-04-29T00:54:45.103Z,7.33
2019-04-29T00:55:45.099Z,7.30
2019-04-29T00:56:45.092Z,7.27
2019-04-29T00:57:45.077Z,7.21
2019-04-29T00:58:45.068Z,7.15
2019-04-29T00:59:45.064Z,7.19
2019-04-29T01:00:45.056Z,7.14
2019-04-29T01:01:45.040Z,7.18
2019-04-29T01:02:45.029Z,7.16
2019-04-29T01:03:45.027Z,7.14
2019-04-29T01:04:45.014Z,7.12
2019-04-29T01:05:45.063Z,7.15
2019-04-29T01:06:44.991Z,7.04
2019-04-29T01:07:44.979Z,7.07
2019-04-29T01:08:44.972Z,6.99
2019-04-29T01:09:44.963Z,7.11
2019-04-29T01:10:44.955Z,7.07
2019-04-29T01:11:44.946Z,7.01
2019-04-29T01:12:44.933Z,6.99
2019-04-29T01:13:44.926Z,6.99
2019-04-29T01:14:44.918Z,7.00
2019-04-29T01:15:44.909Z,6.97
2019-04-29T01:16:44.907Z,6.87
2019-04-29T01:17:44.888Z,6.93
2019-04-29T01:18:44.877Z,6.99
2019-04-29T01:19:44.870Z,7.01
2019-04-29T01:20:44.859Z,6.93
2019-04-29T01:21:44.846Z,7.04
2019-04-29T01:22:44.835Z,6.99
2019-04-29T01:23:44.823Z,7.05
2019-04-29T01:24:44.814Z,6.94
2019-04-29T01:25:44.808Z,6.99
2019-04-29T01:26:44.798Z,6.93
2019-04-29T01:27:44.789Z,6.90
2019-04-29T01:28:44.780Z,6.90
2019-04-29T01:29:44.769Z,6.91
2019-04-29T01:30:44.756Z,6.87
2019-04-29T01:31:44.749Z,6.87
2019-04-29T01:32:44.739Z,6.90
2019-04-29T01:33:44.733Z,6.82
2019-04-29T01:34:44.721Z,6.91
2019-04-29T01:35:44.709Z,6.93
2019-04-29T01:36:44.708Z,6.90
2019-04-29T01:37:44.694Z,6.94
2019-04-29T01:38:44.682Z,6.89
2019-04-29T01:39:44.674Z,6.86
2019-04-29T01:40:44.661Z,6.87
2019-04-29T01:41:44.647Z,6.96
2019-04-29T01:42:44.640Z,6.93
2019-04-29T01:43:44.629Z,6.94
2019-04-29T01:44:44.620Z,6.99
2019-04-29T01:45:44.611Z,6.94
2019-04-29T01:46:44.604Z,6.94
2019-04-29T01:47:44.602Z,6.89
2019-04-29T01:48:44.587Z,6.90
2019-04-29T01:49:44.572Z,6.93
2019-04-29T01:50:44.560Z,6.90
2019-04-29T01:51:44.555Z,6.94
2019-04-29T01:52:44.546Z,6.86
2019-04-29T01:53:44.532Z,6.94
2019-04-29T01:54:44.582Z,6.90
2019-04-29T01:55:44.512Z,6.96
2019-04-29T01:56:44.501Z,6.94
2019-04-29T01:57:44.495Z,6.79
2019-04-29T01:58:44.486Z,6.79
2019-04-29T01:59:44.475Z,6.81
2019-04-29T02:00:44.466Z,6.71
2019-04-29T02:01:44.452Z,6.72
2019-04-29T02:02:44.441Z,6.79
2019-04-29T02:03:44.436Z,6.76
2019-04-29T02:04:44.426Z,6.73
2019-04-29T02:05:44.417Z,6.71
2019-04-29T02:06:44.409Z,6.73
2019-04-29T02:07:44.395Z,6.58
2019-04-29T02:08:44.385Z,6.60
2019-04-29T02:09:44.379Z,6.68
2019-04-29T02:10:44.369Z,6.58
2019-04-29T02:11:44.357Z,6.58
2019-04-29T02:12:44.347Z,6.63
2019-04-29T02:13:44.334Z,6.57
2019-04-29T02:14:44.325Z,6.58
2019-04-29T02:15:44.318Z,6.61
2019-04-29T02:16:44.306Z,6.58
2019-04-29T02:17:44.300Z,6.60
2019-04-29T02:18:44.296Z,6.58
2019-04-29T02:19:44.279Z,6.60
2019-04-29T02:20:44.269Z,6.58
2019-04-29T02:21:44.254Z,6.63
2019-04-29T02:22:44.244Z,6.60
2019-04-29T02:23:44.238Z,6.65
2019-04-29T02:24:44.228Z,6.58
2019-04-29T02:25:44.213Z,6.60
2019-04-29T02:26:44.203Z,6.61
2019-04-29T02:27:44.197Z,6.60
2019-04-29T02:28:44.189Z,6.58
2019-04-29T02:29:44.180Z,6.60
2019-04-29T02:30:44.180Z,6.63
2019-04-29T02:31:44.166Z,6.55
2019-04-29T02:32:44.154Z,6.64
2019-04-29T02:33:44.138Z,6.61
2019-04-29T02:34:44.128Z,6.64
2019-04-29T02:35:44.117Z,6.50
2019-04-29T02:36:44.105Z,6.54
2019-04-29T02:37:44.100Z,6.48
2019-04-29T02:38:44.091Z,6.54
2019-04-29T02:39:44.077Z,6.48
2019-04-29T02:40:44.069Z,6.57
2019-04-29T02:41:44.060Z,6.54
2019-04-29T02:42:44.054Z,6.53
2019-04-29T02:43:44.043Z,6.45
2019-04-29T02:44:44.034Z,6.55
2019-04-29T02:45:44.021Z,6.43
2019-04-29T02:46:44.008Z,6.50
2019-04-29T02:47:43.999Z,6.50
2019-04-29T02:48:43.991Z,6.50
2019-04-29T02:49:43.985Z,6.57
2019-04-29T02:50:43.972Z,6.57
2019-04-29T02:51:43.963Z,6.55
2019-04-29T02:52:43.951Z,6.61
2019-04-29T02:53:43.936Z,6.65
2019-04-29T02:54:43.932Z,6.65
2019-04-29T02:55:43.921Z,6.57
2019-04-29T02:56:43.914Z,6.58
2019-04-29T02:57:43.895Z,6.58
2019-04-29T02:58:43.886Z,6.50
2019-04-29T02:59:43.878Z,6.54
2019-04-29T03:00:43.867Z,6.55
2019-04-29T03:01:43.862Z,6.54
2019-04-29T03:02:43.907Z,6.48
2019-04-29T03:03:43.840Z,6.46
2019-04-29T03:04:43.832Z,6.50
2019-04-29T03:05:43.816Z,6.48
2019-04-29T03:06:43.807Z,6.53
2019-04-29T03:07:43.797Z,6.45
2019-04-29T03:08:43.789Z,6.53
2019-04-29T03:09:43.778Z,6.43
2019-04-29T03:10:43.770Z,6.35
2019-04-29T03:11:43.760Z,6.40
2019-04-29T03:12:43.744Z,6.38
2019-04-29T03:13:43.739Z,6.30
2019-04-29T03:14:43.728Z,6.35
2019-04-29T03:15:43.720Z,6.30
2019-04-29T03:16:43.710Z,6.32
2019-04-29T03:17:43.696Z,6.33
2019-04-29T03:18:43.687Z,6.32
2019-04-29T03:19:43.672Z,6.24
2019-04-29T03:20:43.664Z,6.14
2019-04-29T03:21:43.666Z,6.19
2019-04-29T03:22:43.647Z,6.19
2019-04-29T03:23:43.640Z,6.11
2019-04-29T03:24:43.629Z,6.11
2019-04-29T03:25:43.622Z,6.11
2019-04-29T03:26:43.614Z,6.05
2019-04-29T03:27:43.612Z,6.08
2019-04-29T03:28:43.592Z,6.14
2019-04-29T03:29:43.573Z,6.08
2019-04-29T03:30:43.572Z,6.06
2019-04-29T03:31:43.554Z,6.14
2019-04-29T03:32:43.549Z,6.13
2019-04-29T03:33:43.572Z,6.16
2019-04-29T03:34:43.524Z,6.17
2019-04-29T03:35:43.516Z,6.06
2019-04-29T03:36:43.505Z,6.14
2019-04-29T03:37:43.489Z,6.13
2019-04-29T03:38:43.480Z,6.16
2019-04-29T03:39:43.472Z,6.06
2019-04-29T03:40:43.463Z,6.10
2019-04-29T03:41:43.456Z,6.06
2019-04-29T03:42:43.449Z,5.93
2019-04-29T03:43:43.432Z,5.90
2019-04-29T03:44:43.423Z,5.98
2019-04-29T03:45:43.414Z,5.90
2019-04-29T03:46:43.406Z,5.95
2019-04-29T03:47:43.398Z,5.98
2019-04-29T03:48:43.488Z,5.92
2019-04-29T03:49:43.367Z,5.93
2019-04-29T03:50:43.360Z,5.96
2019-04-29T03:51:43.348Z,6.03
2019-04-29T03:52:43.345Z,6.06
2019-04-29T03:53:43.330Z,6.08
2019-04-29T03:54:43.321Z,6.11
2019-04-29T03:55:43.314Z,6.13
2019-04-29T03:56:43.304Z,6.13
2019-04-29T03:57:43.290Z,6.19
2019-04-29T03:58:43.284Z,6.19
2019-04-29T03:59:43.271Z,6.11
2019-04-29T04:00:44.282Z,6.20
2019-04-29T04:01:43.248Z,6.20
2019-04-29T04:02:43.237Z,6.27
2019-04-29T04:03:43.227Z,6.19
2019-04-29T04:04:43.215Z,6.20
2019-04-29T04:05:43.207Z,6.20
2019-04-29T04:06:43.205Z,6.19
2019-04-29T04:07:43.187Z,6.11
2019-04-29T04:08:43.204Z,6.19
2019-04-29T04:09:43.166Z,6.10
2019-04-29T04:10:43.158Z,6.10
2019-04-29T04:11:43.152Z,6.10
2019-04-29T04:12:43.134Z,6.19
2019-04-29T04:13:43.128Z,6.08
2019-04-29T04:14:43.118Z,6.16
2019-04-29T04:15:43.104Z,6.10
2019-04-29T04:16:43.095Z,6.11
2019-04-29T04:17:43.088Z,6.16
2019-04-29T04:18:43.082Z,6.13
2019-04-29T04:19:43.066Z,6.20
2019-04-29T04:20:43.053Z,6.20
2019-04-29T04:21:43.039Z,6.27
2019-04-29T04:22:43.037Z,6.30
2019-04-29T04:23:43.023Z,6.27
2019-04-29T04:24:43.012Z,6.27
2019-04-29T04:25:43.005Z,6.42
2019-04-29T04:26:43.001Z,6.42
2019-04-29T04:27:42.984Z,6.43
2019-04-29T04:28:42.974Z,6.45
2019-04-29T04:29:42.958Z,6.58
2019-04-29T04:30:42.951Z,6.51
2019-04-29T04:31:42.944Z,6.54
2019-04-29T04:32:42.934Z,6.61
2019-04-29T04:33:42.918Z,6.63
2019-04-29T04:34:42.909Z,6.61
2019-04-29T04:35:42.906Z,6.60
2019-04-29T04:36:42.949Z,6.75
2019-04-29T04:37:42.884Z,6.78
2019-04-29T04:38:42.876Z,6.69
2019-04-29T04:39:42.864Z,6.96
2019-04-29T04:40:42.856Z,6.87
2019-04-29T04:41:42.841Z,6.99
2019-04-29T04:42:42.838Z,7.14
2019-04-29T04:43:42.819Z,7.29
2019-04-29T04:44:42.811Z,7.55
2019-04-29T04:45:42.807Z,7.76
2019-04-29T04:46:42.795Z,8.02
2019-04-29T04:47:42.783Z,8.28
2019-04-29T04:48:42.771Z,8.46
2019-04-29T04:49:42.768Z,8.78
2019-04-29T04:50:42.757Z,9.00
2019-04-29T04:51:42.754Z,9.26
2019-04-29T04:52:42.762Z,9.44
2019-04-29T04:53:42.730Z,9.58
2019-04-29T04:54:42.719Z,9.74
2019-04-29T04:55:42.711Z,9.95
2019-04-29T04:56:42.701Z,10.24
2019-04-29T04:57:42.697Z,10.43
2019-04-29T04:58:42.688Z,10.83
2019-04-29T04:59:42.677Z,10.99
2019-04-29T05:00:42.670Z,11.24
2019-04-29T05:01:42.656Z,11.38
2019-04-29T05:02:42.648Z,11.54
2019-04-29T05:03:42.645Z,11.75
2019-04-29T05:04:42.637Z,11.98
2019-04-29T05:05:42.927Z,12.13
2019-04-29T05:06:42.618Z,12.21
2019-04-29T05:07:42.613Z,12.31
2019-04-29T05:08:42.606Z,12.44
2019-04-29T05:09:42.603Z,12.61
2019-04-29T05:10:42.594Z,12.88
2019-04-29T05:11:42.591Z,13.14
2019-04-29T05:12:42.583Z,13.25
2019-04-29T05:13:42.570Z,13.51
2019-04-29T05:14:42.564Z,13.86
2019-04-29T05:15:42.556Z,14.06
2019-04-29T05:16:42.608Z,14.13
2019-04-29T05:17:42.545Z,14.36
2019-04-29T05:18:42.542Z,14.52
2019-04-29T05:19:42.530Z,14.75
2019-04-29T05:20:42.525Z,14.98
2019-04-29T05:21:42.523Z,15.18
2019-04-29T05:22:42.519Z,15.31
2019-04-29T05:23:42.515Z,15.19
2019-04-29T05:24:42.508Z,15.35
2019-04-29T05:25:42.499Z,15.58
2019-04-29T05:26:42.494Z,15.76
2019-04-29T05:27:42.489Z,16.04
2019-04-29T05:28:42.486Z,16.18
2019-04-29T05:29:42.484Z,16.44
2019-04-29T05:30:42.480Z,16.63
2019-04-29T05:31:42.477Z,16.82
2019-04-29T05:32:42.469Z,16.82
2019-04-29T05:33:42.460Z,17.06
2019-04-29T05:34:46.608Z,17.32
2019-04-29T05:35:42.456Z,17.53
2019-04-29T05:36:42.452Z,17.76
2019-04-29T05:37:42.443Z,18.07
2019-04-29T05:38:42.441Z,18.32
2019-04-29T05:39:42.442Z,18.53
2019-04-29T05:40:42.436Z,18.82
2019-04-29T05:41:42.438Z,19.09
2019-04-29T05:42:42.433Z,19.42
2019-04-29T05:43:42.433Z,19.52
2019-04-29T05:44:42.431Z,19.75
2019-04-29T05:45:46.314Z,20.01
2019-04-29T05:46:42.426Z,20.15
2019-04-29T05:47:42.417Z,20.31
2019-04-29T05:48:42.416Z,20.51
2019-04-29T05:49:42.868Z,20.60
2019-04-29T05:50:42.415Z,20.66
2019-04-29T05:51:42.409Z,20.83
2019-04-29T05:52:42.409Z,21.09
2019-04-29T05:53:42.410Z,21.09
2019-04-29T05:54:42.409Z,21.06
2019-04-29T05:55:42.412Z,21.15
2019-04-29T05:56:42.412Z,21.22
2019-04-29T05:57:42.406Z,21.36
2019-04-29T05:58:42.406Z,21.61
2019-04-29T05:59:43.361Z,21.66
2019-04-29T06:00:42.411Z,21.89
2019-04-29T06:01:42.592Z,22.11
2019-04-29T06:02:42.409Z,21.96
2019-04-29T06:03:44.272Z,21.75
2019-04-29T06:04:42.414Z,21.85
2019-04-29T06:05:42.402Z,22.19
2019-04-29T06:06:42.405Z,21.94
2019-04-29T06:07:42.410Z,22.29
2019-04-29T06:08:42.410Z,22.42
2019-04-29T06:09:42.407Z,22.64
2019-04-29T06:10:42.412Z,23.09
2019-04-29T06:11:42.413Z,22.96
2019-04-29T06:12:44.459Z,22.86
2019-04-29T06:13:42.420Z,22.15
2019-04-29T06:14:42.422Z,21.27
2019-04-29T06:15:42.423Z,21.63
2019-04-29T06:16:42.426Z,22.01
2019-04-29T06:17:44.828Z,21.86
2019-04-29T06:18:42.425Z,21.68
2019-04-29T06:19:42.427Z,21.81
2019-04-29T06:20:42.428Z,22.35
2019-04-29T06:21:42.435Z,22.61
2019-04-29T06:22:43.525Z,23.16
2019-04-29T06:23:42.439Z,22.84
2019-04-29T06:24:42.439Z,23.32
2019-04-29T06:25:42.446Z,22.94
2019-04-29T06:26:43.714Z,23.25
2019-04-29T06:27:42.457Z,23.56
2019-04-29T06:28:42.462Z,23.96
2019-04-29T06:29:42.460Z,24.19
2019-04-29T06:30:45.085Z,24.45
2019-04-29T06:31:42.462Z,24.74
2019-04-29T06:32:42.472Z,24.00
2019-04-29T06:33:42.473Z,24.16
2019-04-29T06:34:42.478Z,24.08
2019-04-29T06:35:43.367Z,24.14
2019-04-29T06:36:42.489Z,24.71
2019-04-29T06:37:42.489Z,24.71
2019-04-29T06:38:42.493Z,24.53
2019-04-29T06:39:42.500Z,24.71
2019-04-29T06:40:42.506Z,24.77
2019-04-29T06:41:45.445Z,25.23
2019-04-29T06:42:42.511Z,24.94
2019-04-29T06:43:42.514Z,25.17
2019-04-29T06:44:44.369Z,25.59
2019-04-29T06:45:42.526Z,25.60
2019-04-29T06:46:42.534Z,25.98
2019-04-29T06:47:42.539Z,26.42
2019-04-29T06:48:42.543Z,26.29
2019-04-29T06:49:42.545Z,26.81
2019-04-29T06:50:42.549Z,27.18
2019-04-29T06:51:42.558Z,27.38
2019-04-29T06:52:42.563Z,27.27
2019-04-29T06:53:42.572Z,27.50
2019-04-29T06:54:42.579Z,27.55
2019-04-29T06:55:42.580Z,27.78
2019-04-29T06:56:42.586Z,27.86
2019-04-29T06:57:42.594Z,27.59
2019-04-29T06:58:42.607Z,27.81
2019-04-29T06:59:43.034Z,28.13
2019-04-29T07:00:42.613Z,28.35
2019-04-29T07:01:42.618Z,28.61
2019-04-29T07:02:45.554Z,28.82
2019-04-29T07:03:42.625Z,28.95
2019-04-29T07:04:42.634Z,28.77
2019-04-29T07:05:42.642Z,28.72
2019-04-29T07:06:56.295Z,28.74
2019-04-29T07:07:42.659Z,28.70
2019-04-29T07:08:42.666Z,28.42
2019-04-29T07:09:42.670Z,28.14
2019-04-29T07:10:42.752Z,28.21
2019-04-29T07:11:42.687Z,28.08
2019-04-29T07:12:47.137Z,27.96
2019-04-29T07:13:42.696Z,27.91
2019-04-29T07:14:42.702Z,27.76
2019-04-29T07:15:43.468Z,27.93
2019-04-29T07:16:42.712Z,28.01
2019-04-29T07:17:43.043Z,28.09
2019-04-29T07:18:48.249Z,27.30
2019-04-29T07:19:42.742Z,27.38
2019-04-29T07:20:42.749Z,27.39
2019-04-29T07:21:47.092Z,27.80
2019-04-29T07:22:42.757Z,28.18
2019-04-29T07:23:42.763Z,28.18
2019-04-29T07:24:42.772Z,28.61
2019-04-29T07:25:42.782Z,28.57
2019-04-29T07:26:42.787Z,28.36
2019-04-29T07:27:44.259Z,28.51
2019-04-29T07:28:42.801Z,28.80
2019-04-29T07:29:42.815Z,29.02
2019-04-29T07:31:00.726Z,29.21
2019-04-29T07:31:42.823Z,29.48
2019-04-29T07:32:47.096Z,29.44
2019-04-29T07:33:42.836Z,29.07
2019-04-29T07:34:42.843Z,28.23
2019-04-29T07:35:47.367Z,28.09
2019-04-29T07:36:42.870Z,28.21
2019-04-29T07:37:42.873Z,27.11
2019-04-29T07:38:46.467Z,25.72
2019-04-29T07:39:42.888Z,26.32
2019-04-29T07:40:43.333Z,25.98
2019-04-29T07:41:42.897Z,26.65
2019-04-29T07:42:42.905Z,27.15
2019-04-29T07:43:44.170Z,27.74
2019-04-29T07:44:44.089Z,28.40
2019-04-29T07:45:44.439Z,29.17
2019-04-29T07:46:56.107Z,29.25
2019-04-29T07:47:55.755Z,29.12
2019-04-29T07:48:43.791Z,29.29
2019-04-29T07:49:42.970Z,29.88
2019-04-29T07:50:42.981Z,30.18
2019-04-29T07:51:42.989Z,29.89
2019-04-29T07:52:45.716Z,30.51
2019-04-29T07:53:45.390Z,30.93
2019-04-29T07:54:43.012Z,31.18
2019-04-29T07:55:43.017Z,31.18
2019-04-29T07:56:43.688Z,31.04
2019-04-29T07:57:43.042Z,31.16
2019-04-29T07:58:43.053Z,31.56
2019-04-29T07:59:43.063Z,31.97
2019-04-29T08:00:44.544Z,32.12
2019-04-29T08:01:43.080Z,32.07
2019-04-29T08:02:43.092Z,32.54
2019-04-29T08:03:43.116Z,32.35
2019-04-29T08:04:43.116Z,32.28
2019-04-29T08:05:43.123Z,32.61
2019-04-29T08:06:44.787Z,33.02
2019-04-29T08:07:43.145Z,33.26
2019-04-29T08:08:54.299Z,33.65
2019-04-29T08:09:44.265Z,34.14
2019-04-29T08:10:54.075Z,34.40
2019-04-29T08:11:43.190Z,34.28
2019-04-29T08:12:43.201Z,34.71
2019-04-29T08:13:43.210Z,34.28
2019-04-29T08:14:43.224Z,34.61
2019-04-29T08:15:43.683Z,34.94
2019-04-29T08:16:43.250Z,35.05
2019-04-29T08:17:43.255Z,35.44
2019-04-29T08:18:43.267Z,35.21
2019-04-29T08:19:43.284Z,35.12
2019-04-29T08:20:43.295Z,34.75
2019-04-29T08:21:45.394Z,34.73
2019-04-29T08:22:43.325Z,34.38
2019-04-29T08:23:43.339Z,34.05
2019-04-29T08:24:45.967Z,34.45
2019-04-29T08:25:43.361Z,34.53
2019-04-29T08:26:47.326Z,35.02
2019-04-29T08:27:43.873Z,35.50
2019-04-29T08:28:43.398Z,35.13
2019-04-29T08:29:43.414Z,32.68
2019-04-29T08:30:45.857Z,32.51
2019-04-29T08:31:43.437Z,31.91
2019-04-29T08:32:43.450Z,32.03
2019-04-29T08:33:46.803Z,30.93
2019-04-29T08:34:43.486Z,29.91
2019-04-29T08:35:46.608Z,27.55
2019-04-29T08:36:43.517Z,25.53
2019-04-29T08:37:43.543Z,25.12
2019-04-29T08:38:43.534Z,25.63
2019-04-29T08:39:43.542Z,26.79
2019-04-29T08:40:45.232Z,28.02
2019-04-29T08:41:43.572Z,29.25
2019-04-29T08:42:46.775Z,30.46
2019-04-29T08:43:43.599Z,31.18
2019-04-29T08:44:43.613Z,31.92
2019-04-29T08:45:43.619Z,32.69
2019-04-29T08:46:44.463Z,33.00
2019-04-29T08:47:43.651Z,34.09
2019-04-29T08:48:45.905Z,33.87
2019-04-29T08:49:43.672Z,32.76
2019-04-29T08:50:43.685Z,31.47
2019-04-29T08:51:43.694Z,30.64
2019-04-29T08:52:43.709Z,29.88
2019-04-29T08:53:43.728Z,28.89
2019-04-29T08:54:43.738Z,26.76
2019-04-29T08:55:43.749Z,26.20
2019-04-29T08:57:01.878Z,27.45
2019-04-29T08:57:43.769Z,28.15
2019-04-29T08:58:44.402Z,29.42
2019-04-29T08:59:43.795Z,30.08
2019-04-29T09:00:43.804Z,30.68
2019-04-29T09:01:43.818Z,31.65
2019-04-29T09:02:47.012Z,31.90
2019-04-29T09:03:43.838Z,31.37
2019-04-29T09:04:53.287Z,30.60
2019-04-29T09:05:46.110Z,30.98
2019-04-29T09:06:43.875Z,31.84
2019-04-29T09:07:43.883Z,31.46
2019-04-29T09:08:54.995Z,31.05
2019-04-29T09:09:43.901Z,30.45
2019-04-29T09:10:43.913Z,29.76
2019-04-29T09:11:47.936Z,28.89
2019-04-29T09:12:43.934Z,28.46
2019-04-29T09:13:43.947Z,28.14
2019-04-29T09:14:43.958Z,27.34
2019-04-29T09:15:43.969Z,26.79
2019-04-29T09:16:43.978Z,26.51
2019-04-29T09:17:43.983Z,26.08
2019-04-29T09:18:43.990Z,25.49
2019-04-29T09:19:44.005Z,25.01
2019-04-29T09:20:44.012Z,24.68
2019-04-29T09:21:44.016Z,24.19
2019-04-29T09:22:44.025Z,23.64
2019-04-29T09:23:44.026Z,22.86
2019-04-29T09:24:48.106Z,22.81
2019-04-29T09:25:44.044Z,22.81
2019-04-29T09:26:44.048Z,23.47
2019-04-29T09:27:45.103Z,23.50
2019-04-29T09:28:44.061Z,23.16
2019-04-29T09:29:46.409Z,23.38
2019-04-29T09:30:44.067Z,23.26
2019-04-29T09:31:46.692Z,23.04
2019-04-29T09:32:44.083Z,22.74
2019-04-29T09:33:48.858Z,22.64
2019-04-29T09:34:44.095Z,23.14
2019-04-29T09:35:44.095Z,24.23
2019-04-29T09:36:48.275Z,25.53
2019-04-29T09:37:44.109Z,26.69
2019-04-29T09:38:44.113Z,27.52
2019-04-29T09:39:44.117Z,28.82
2019-04-29T09:40:45.774Z,29.79
2019-04-29T09:41:44.123Z,30.25
2019-04-29T09:42:45.513Z,31.12
2019-04-29T09:43:44.143Z,31.69
2019-04-29T09:44:44.997Z,32.53
2019-04-29T09:45:44.154Z,33.29
2019-04-29T09:46:44.162Z,33.33
2019-04-29T09:47:44.168Z,33.03
2019-04-29T09:48:44.178Z,33.45
2019-04-29T09:49:44.191Z,33.63
2019-04-29T09:50:44.208Z,34.03
2019-04-29T09:51:44.208Z,34.12
2019-04-29T09:52:44.220Z,34.75
2019-04-29T09:53:44.237Z,34.83
2019-04-29T09:54:44.249Z,35.05
2019-04-29T09:55:44.263Z,34.46
2019-04-29T09:56:44.280Z,33.92
2019-04-29T09:57:44.284Z,33.40
2019-04-29T09:58:44.303Z,31.90
2019-04-29T09:59:44.310Z,31.16
2019-04-29T10:00:44.338Z,31.91
2019-04-29T10:01:44.349Z,32.10
2019-04-29T10:02:44.357Z,32.72
2019-04-29T10:03:44.370Z,33.59
2019-04-29T10:04:55.836Z,33.11
2019-04-29T10:05:44.393Z,31.57
2019-04-29T10:06:44.406Z,29.92
2019-04-29T10:07:44.424Z,30.37
2019-04-29T10:08:44.438Z,30.08
2019-04-29T10:09:56.495Z,29.35
2019-04-29T10:10:44.462Z,29.08
2019-04-29T10:11:44.480Z,29.11
2019-04-29T10:12:44.494Z,29.14
2019-04-29T10:13:44.509Z,29.00
2019-04-29T10:14:44.523Z,28.48
2019-04-29T10:15:44.536Z,28.01
2019-04-29T10:16:44.552Z,27.20
2019-04-29T10:17:45.809Z,26.71
2019-04-29T10:18:44.568Z,26.23
2019-04-29T10:19:44.576Z,26.01
2019-04-29T10:20:44.586Z,25.81
2019-04-29T10:21:44.601Z,25.54
2019-04-29T10:22:44.611Z,26.28
2019-04-29T10:23:44.616Z,27.38
2019-04-29T10:24:44.628Z,27.84
2019-04-29T10:25:44.639Z,27.98
2019-04-29T10:26:44.648Z,28.27
2019-04-29T10:27:44.662Z,28.69
2019-04-29T10:28:44.668Z,29.47
2019-04-29T10:29:44.673Z,29.55
2019-04-29T10:30:44.681Z,29.55
2019-04-29T10:31:44.691Z,29.58
2019-04-29T10:32:44.704Z,30.34
2019-04-29T10:33:44.715Z,30.73
2019-04-29T10:34:44.725Z,30.26
2019-04-29T10:35:45.208Z,29.63
2019-04-29T10:36:44.742Z,27.76
2019-04-29T10:37:44.747Z,26.94
2019-04-29T10:38:45.941Z,26.39
2019-04-29T10:39:44.780Z,26.21
2019-04-29T10:40:44.783Z,25.74
2019-04-29T10:41:44.788Z,25.63
2019-04-29T10:42:44.801Z,25.64
2019-04-29T10:43:44.813Z,25.60
2019-04-29T10:44:44.819Z,25.54
2019-04-29T10:45:44.833Z,25.49
2019-04-29T10:46:44.840Z,25.66
2019-04-29T10:47:44.843Z,25.39
2019-04-29T10:48:44.850Z,25.36
2019-04-29T10:49:44.853Z,25.64
2019-04-29T10:50:47.071Z,25.44
2019-04-29T10:51:44.869Z,26.01
2019-04-29T10:52:44.875Z,26.79
2019-04-29T10:53:46.748Z,26.29
2019-04-29T10:54:44.894Z,26.12
2019-04-29T10:55:44.895Z,25.89
2019-04-29T10:56:44.902Z,25.79
2019-04-29T10:57:49.750Z,25.64
2019-04-29T10:58:44.918Z,25.51
2019-04-29T10:59:46.116Z,24.79
2019-04-29T11:00:44.929Z,24.39
2019-04-29T11:01:44.929Z,24.16
2019-04-29T11:02:49.367Z,24.24
2019-04-29T11:03:44.945Z,24.41
2019-04-29T11:04:44.949Z,24.87
2019-04-29T11:05:59.935Z,24.53
2019-04-29T11:06:44.963Z,24.77
2019-04-29T11:07:44.972Z,25.31
2019-04-29T11:08:44.975Z,26.11
2019-04-29T11:09:46.323Z,26.60
2019-04-29T11:10:44.981Z,27.38
2019-04-29T11:11:44.991Z,27.96
2019-04-29T11:12:44.997Z,27.99
2019-04-29T11:13:49.863Z,27.61
2019-04-29T11:14:45.003Z,27.15
2019-04-29T11:15:49.276Z,26.81
2019-04-29T11:16:46.977Z,26.57
2019-04-29T11:17:46.423Z,26.03
2019-04-29T11:18:45.032Z,25.14
2019-04-29T11:19:45.040Z,24.83
2019-04-29T11:20:48.927Z,24.56
2019-04-29T11:21:45.049Z,24.74
2019-04-29T11:22:45.054Z,25.01
2019-04-29T11:23:45.063Z,24.82
2019-04-29T11:24:45.071Z,24.41
2019-04-29T11:25:50.981Z,24.06
2019-04-29T11:26:45.089Z,23.41
2019-04-29T11:27:45.085Z,23.29
2019-04-29T11:28:47.008Z,23.38
2019-04-29T11:29:45.099Z,23.19
2019-04-29T11:30:45.105Z,23.15
2019-04-29T11:31:48.970Z,23.15
2019-04-29T11:32:45.111Z,22.85
2019-04-29T11:33:45.112Z,22.86
2019-04-29T11:34:48.604Z,22.85
2019-04-29T11:35:45.119Z,22.72
2019-04-29T11:36:45.123Z,22.63
2019-04-29T11:37:45.131Z,22.69
2019-04-29T11:38:45.138Z,22.60
2019-04-29T11:39:46.195Z,22.59
2019-04-29T11:40:45.145Z,22.57
2019-04-29T11:41:45.144Z,22.56
2019-04-29T11:42:45.150Z,22.45
2019-04-29T11:43:46.756Z,22.72
2019-04-29T11:44:45.162Z,22.86
2019-04-29T11:45:45.162Z,23.16
2019-04-29T11:46:49.004Z,23.19
2019-04-29T11:47:45.163Z,23.29
2019-04-29T11:48:45.167Z,23.35
2019-04-29T11:49:47.808Z,23.29
2019-04-29T11:50:49.404Z,23.06
2019-04-29T11:52:07.666Z,22.96
2019-04-29T11:52:45.183Z,22.86
2019-04-29T11:53:45.183Z,22.61
2019-04-29T11:54:45.186Z,22.24
2019-04-29T11:55:46.448Z,21.73
2019-04-29T11:56:45.188Z,21.56
2019-04-29T11:57:45.201Z,21.21
2019-04-29T11:58:45.198Z,21.15
2019-04-29T11:59:45.211Z,21.11
2019-04-29T12:00:45.199Z,21.12
2019-04-29T12:01:50.888Z,21.09
2019-04-29T12:02:46.186Z,21.00
2019-04-29T12:03:45.212Z,21.05
2019-04-29T12:04:45.214Z,21.00
2019-04-29T12:05:46.242Z,21.03
2019-04-29T12:06:45.211Z,21.18
2019-04-29T12:07:45.215Z,21.05
2019-04-29T12:08:48.162Z,20.81
2019-04-29T12:09:45.223Z,20.91
2019-04-29T12:10:52.083Z,21.01
2019-04-29T12:11:45.223Z,20.94
2019-04-29T12:12:47.762Z,20.91
2019-04-29T12:13:45.224Z,20.94
2019-04-29T12:14:45.223Z,21.18
2019-04-29T12:15:49.192Z,21.21
2019-04-29T12:16:45.230Z,21.18
2019-04-29T12:17:45.228Z,20.94
2019-04-29T12:18:45.228Z,20.94
2019-04-29T12:19:45.233Z,20.71
2019-04-29T12:20:45.236Z,20.64
2019-04-29T12:21:45.241Z,20.56
2019-04-29T12:22:48.550Z,20.51
2019-04-29T12:23:47.753Z,20.46
2019-04-29T12:24:45.244Z,20.60
2019-04-29T12:25:45.241Z,20.73
2019-04-29T12:26:45.257Z,20.88
2019-04-29T12:27:45.240Z,21.05
2019-04-29T12:28:45.267Z,21.30
2019-04-29T12:29:48.978Z,21.56
2019-04-29T12:30:45.249Z,21.51
2019-04-29T12:31:49.350Z,21.58
2019-04-29T12:32:45.247Z,21.63
2019-04-29T12:33:45.251Z,21.61
2019-04-29T12:34:45.252Z,21.55
2019-04-29T12:35:51.952Z,21.49
2019-04-29T12:36:55.943Z,21.43
2019-04-29T12:37:45.254Z,21.37
2019-04-29T12:38:49.845Z,21.30
2019-04-29T12:39:45.302Z,21.28
2019-04-29T12:40:45.543Z,21.16
2019-04-29T12:41:49.206Z,21.30
2019-04-29T12:42:45.269Z,21.38
2019-04-29T12:43:48.703Z,21.53
2019-04-29T12:44:45.822Z,21.70
2019-04-29T12:45:45.264Z,21.86
2019-04-29T12:46:45.264Z,22.14
2019-04-29T12:47:45.273Z,22.14
2019-04-29T12:48:45.272Z,22.31
2019-04-29T12:49:46.433Z,22.35
2019-04-29T12:50:45.269Z,22.36
2019-04-29T12:51:45.308Z,22.29
2019-04-29T12:52:45.277Z,22.15
2019-04-29T12:53:45.283Z,22.09
2019-04-29T12:54:46.185Z,22.06
2019-04-29T12:55:50.125Z,22.04
2019-04-29T12:56:47.648Z,22.19
2019-04-29T12:57:45.283Z,22.24
2019-04-29T12:58:50.292Z,22.24
2019-04-29T12:59:45.314Z,22.41
2019-04-29T13:00:48.984Z,22.33
2019-04-29T13:01:51.526Z,22.38
2019-04-29T13:02:45.303Z,22.35